Hlavní strana
METAR-TAF:

METAR-TAF

Letiště :

Mezinárodní letiště Léon-Mba

Libreville, Gabon

zeměpisná šířka: 00-27N, zeměpisná délka: 009-25E, výška: 12 m

Aktuální stav počasí

Zpráva byla vytvořena před 28 minutami, v 09:00 UTC
Jihojihovýchodní vítr 8 kt, proměnlivý mezi východojihovýchodním a jižním
Teplota 27°C
Vlhkost vzduchu 70%
Tlak 1017 hPa
Viditelnost 10 km a více
Polojasno ve výšce 1300 ft

METAR: FOOL 070900Z 15008KT 110V190 9999 SCT013 27/21 Q1017 NOSIG

Čas: 10:28 (09:28 UTC)

Předpověď počasí

Zpráva byla vytvořena před 4 hodinami a 28 minutami, v 05:00 UTC
Předpověď platná od 07 v 06 UTC do 08 v 12 UTC
Jižní vítr 8 kt
Viditelnost 10 km a více
Polojasno ve výšce 1000 ft
Oblačno až skoro zataženo ve výšce 3000 ft

TAF: FOOL 070500Z 0706/0812 18008KT 9999 SCT010 BKN030

Stav a předpovědi počasí z více než 4 000 letišť (zprávy METAR a TAF).

Červené a žluté tečky na mapě představují dostupné meteorologické stanice.

Když kurzor umístíte na tečku, zobrazí se název stanice.

Pak kliknutím zobrazíte stav a předpověď počasí.

Chcete-li změnit mapu, kliknutím na zelené tlačítko se znaménkem +mapu přiblížíte, kliknutím na zelené tlačítko se znaménkem – mapu oddálíte a kliknutím na zelené šipky přejdete na sousední mapy.


METAR-TAF: